Time,TemperatureF,DewpointF,PressureIn,WindDirection,WindDirectionDegrees,WindSpeedMPH,WindSpeedGustMPH,Humidity,HourlyPrecipIn,Conditions,Clouds,dailyrainin,SoftwareType,DateUTC
2013-03-14 00:03:00,25.9,19.1,30.07,West,270,6.8,-999.0,75,-99.99,,,0.00,Acu-Link.com,2013-03-14 04:03:00,
2013-03-14 00:18:00,25.9,19.1,30.08,WNW,292,6.3,-999.0,75,-99.99,,,0.00,Acu-Link.com,2013-03-14 04:18:00,
2013-03-14 00:34:00,25.5,19.0,30.08,WNW,292,4.7,-999.0,76,-99.99,,,0.00,Acu-Link.com,2013-03-14 04:34:00,
2013-03-14 00:49:00,25.2,18.4,30.07,WSW,247,6.3,-999.0,75,-99.99,,,0.00,Acu-Link.com,2013-03-14 04:49:00,
2013-03-14 01:04:00,24.8,18.0,30.07,WNW,292,4.2,-999.0,75,-99.99,,,0.00,Acu-Link.com,2013-03-14 05:04:00,
2013-03-14 01:20:00,24.3,18.1,30.07,West,270,3.2,-999.0,77,-99.99,,,0.00,Acu-Link.com,2013-03-14 05:20:00,
2013-03-14 01:35:00,24.1,17.7,30.07,West,270,3.7,-999.0,76,-99.99,,,0.00,Acu-Link.com,2013-03-14 05:35:00,
2013-03-14 01:50:00,23.9,17.5,30.08,WNW,292,3.7,-999.0,76,-99.99,,,0.00,Acu-Link.com,2013-03-14 05:50:00,
2013-03-14 02:05:00,23.9,17.5,30.08,SW,225,3.7,-999.0,76,-99.99,,,0.00,Acu-Link.com,2013-03-14 06:05:00,
2013-03-14 02:20:00,23.7,17.3,30.07,West,270,3.2,-999.0,76,-99.99,,,0.00,Acu-Link.com,2013-03-14 06:20:00,
2013-03-14 02:36:00,23.0,17.2,30.07,WSW,247,4.2,-999.0,78,-99.99,,,0.00,Acu-Link.com,2013-03-14 06:36:00,
2013-03-14 02:51:00,22.8,17.3,30.08,West,270,2.7,-999.0,79,-99.99,,,0.00,Acu-Link.com,2013-03-14 06:51:00,
2013-03-14 03:06:00,22.6,17.4,30.08,WSW,247,3.2,-999.0,80,-99.99,,,0.00,Acu-Link.com,2013-03-14 07:06:00,
2013-03-14 03:22:00,22.1,17.2,30.08,WSW,247,2.7,-999.0,81,-99.99,,,0.00,Acu-Link.com,2013-03-14 07:22:00,
2013-03-14 03:37:00,21.6,17.0,30.08,SW,225,2.2,-999.0,82,-99.99,,,0.00,Acu-Link.com,2013-03-14 07:37:00,
2013-03-14 03:52:00,21.4,17.1,30.09,SW,225,2.7,-999.0,83,-99.99,,,0.00,Acu-Link.com,2013-03-14 07:52:00,
2013-03-14 04:07:00,21.2,17.1,30.08,SW,225,2.7,-999.0,84,-99.99,,,0.00,Acu-Link.com,2013-03-14 08:07:00,
2013-03-14 04:22:00,20.8,17.0,30.09,SW,225,2.2,-999.0,85,-99.99,,,0.00,Acu-Link.com,2013-03-14 08:22:00,
2013-03-14 04:37:00,20.8,17.3,30.08,SW,225,2.7,-999.0,86,-99.99,,,0.00,Acu-Link.com,2013-03-14 08:37:00,
2013-03-14 04:52:00,20.3,16.8,30.09,SSW,202,0.0,-999.0,86,-99.99,,,0.00,Acu-Link.com,2013-03-14 08:52:00,
2013-03-14 05:08:00,19.9,16.9,30.07,SSW,202,0.0,-999.0,88,-99.99,,,0.00,Acu-Link.com,2013-03-14 09:08:00,
2013-03-14 05:23:00,19.8,16.8,30.08,South,180,0.0,-999.0,88,-99.99,,,0.00,Acu-Link.com,2013-03-14 09:23:00,
2013-03-14 05:38:00,19.6,16.9,30.08,SSW,202,2.7,-999.0,89,-99.99,,,0.00,Acu-Link.com,2013-03-14 09:38:00,
2013-03-14 05:53:00,20.1,17.6,30.07,SSW,202,3.2,-999.0,90,-99.99,,,0.00,Acu-Link.com,2013-03-14 09:53:00,
2013-03-14 06:08:00,20.3,17.6,30.08,SSW,202,2.7,-999.0,89,-99.99,,,0.00,Acu-Link.com,2013-03-14 10:08:00,
2013-03-14 06:24:00,20.5,17.5,30.06,SSW,202,1.7,-999.0,88,-99.99,,,0.00,Acu-Link.com,2013-03-14 10:24:00,
2013-03-14 06:39:00,20.1,17.1,30.06,South,180,2.2,-999.0,88,-99.99,,,0.00,Acu-Link.com,2013-03-14 10:39:00,
2013-03-14 06:54:00,20.1,17.1,30.07,SW,225,2.7,-999.0,88,-99.99,,,0.00,Acu-Link.com,2013-03-14 10:54:00,
2013-03-14 07:09:00,19.9,16.9,30.07,SW,225,3.7,-999.0,88,-99.99,,,0.00,Acu-Link.com,2013-03-14 11:09:00,
2013-03-14 07:25:00,20.5,17.5,30.07,SSW,202,3.7,-999.0,88,-99.99,,,0.00,Acu-Link.com,2013-03-14 11:25:00,
2013-03-14 07:40:00,20.5,17.5,30.07,WSW,247,2.7,-999.0,88,-99.99,,,0.00,Acu-Link.com,2013-03-14 11:40:00,
2013-03-14 07:55:00,20.8,17.8,30.07,SSW,202,3.2,-999.0,88,-99.99,,,0.00,Acu-Link.com,2013-03-14 11:55:00,
2013-03-14 08:10:00,21.2,17.9,30.07,SW,225,3.2,-999.0,87,-99.99,,,0.00,Acu-Link.com,2013-03-14 12:10:00,
2013-03-14 08:25:00,22.1,18.6,30.07,SSW,202,5.8,-999.0,86,-99.99,,,0.00,Acu-Link.com,2013-03-14 12:25:00,
2013-03-14 08:41:00,22.6,18.8,30.08,SW,225,4.7,-999.0,85,-99.99,,,0.00,Acu-Link.com,2013-03-14 12:41:00,
2013-03-14 08:56:00,23.5,19.4,30.07,SSW,202,3.7,-999.0,84,-99.99,,,0.00,Acu-Link.com,2013-03-14 12:56:00,
2013-03-14 09:26:00,26.8,21.2,30.08,West,270,3.2,-999.0,79,-99.99,,,0.00,Acu-Link.com,2013-03-14 13:26:00,
2013-03-14 09:41:00,27.7,21.4,30.08,West,270,5.8,-999.0,77,-99.99,,,0.00,Acu-Link.com,2013-03-14 13:41:00,
2013-03-14 10:11:00,29.3,22.7,30.09,West,270,7.3,-999.0,76,-99.99,,,0.00,Acu-Link.com,2013-03-14 14:11:00,
2013-03-14 10:27:00,29.7,22.1,30.09,SW,225,6.8,-999.0,73,-99.99,,,0.00,Acu-Link.com,2013-03-14 14:27:00,
2013-03-14 10:42:00,30.7,22.1,30.09,South,180,6.8,-999.0,70,-99.99,,,0.00,Acu-Link.com,2013-03-14 14:42:00,
2013-03-14 10:57:00,32.7,21.9,30.08,West,270,9.4,-999.0,64,-99.99,,,0.00,Acu-Link.com,2013-03-14 14:57:00,
2013-03-14 11:12:00,33.3,22.5,30.08,West,270,8.3,-999.0,64,-99.99,,,0.00,Acu-Link.com,2013-03-14 15:12:00,
2013-03-14 11:27:00,34.7,21.9,30.07,WNW,292,11.9,-999.0,59,-99.99,,,0.00,Acu-Link.com,2013-03-14 15:27:00,
2013-03-14 11:42:00,34.3,20.7,30.08,WNW,292,6.3,-999.0,57,-99.99,,,0.00,Acu-Link.com,2013-03-14 15:42:00,
2013-03-14 11:57:00,36.1,23.2,30.07,SW,225,10.9,-999.0,59,-99.99,,,0.00,Acu-Link.com,2013-03-14 15:57:00,
2013-03-14 12:12:00,36.7,22.1,30.06,WNW,292,9.4,-999.0,55,-99.99,,,0.00,Acu-Link.com,2013-03-14 16:12:00,
2013-03-14 12:27:00,37.4,22.3,30.06,West,270,8.3,-999.0,54,-99.99,,,0.00,Acu-Link.com,2013-03-14 16:27:00,
2013-03-14 12:42:00,37.2,22.1,30.06,SSW,202,7.3,-999.0,54,-99.99,,,0.00,Acu-Link.com,2013-03-14 16:42:00,
2013-03-14 12:57:00,37.0,21.9,30.05,SW,225,6.3,-999.0,54,-99.99,,,0.00,Acu-Link.com,2013-03-14 16:57:00,
2013-03-14 13:12:00,36.9,21.4,30.04,WSW,247,7.3,-999.0,53,-99.99,,,0.00,Acu-Link.com,2013-03-14 17:12:00,
2013-03-14 13:28:00,37.2,18.9,30.04,SSW,202,10.9,-999.0,47,-99.99,,,0.00,Acu-Link.com,2013-03-14 17:28:00,
2013-03-14 13:43:00,37.4,20.5,30.04,SW,225,9.9,-999.0,50,-99.99,,,0.00,Acu-Link.com,2013-03-14 17:43:00,
2013-03-14 13:58:00,37.4,18.5,30.03,SSW,202,6.8,-999.0,46,-99.99,,,0.00,Acu-Link.com,2013-03-14 17:58:00,
2013-03-14 14:14:00,39.0,19.5,30.03,South,180,8.9,-999.0,45,-99.99,,,0.00,Acu-Link.com,2013-03-14 18:14:00,
2013-03-14 14:29:00,38.8,19.8,30.02,SSW,202,6.3,-999.0,46,-99.99,,,0.00,Acu-Link.com,2013-03-14 18:29:00,
2013-03-14 14:44:00,39.6,20.0,30.01,West,270,8.3,-999.0,45,-99.99,,,0.00,Acu-Link.com,2013-03-14 18:44:00,
2013-03-14 15:00:00,42.1,20.1,30.00,WSW,247,6.8,-999.0,41,-99.99,,,0.00,Acu-Link.com,2013-03-14 19:00:00,
2013-03-14 15:15:00,40.8,17.8,29.99,SSW,202,10.4,-999.0,39,-99.99,,,0.00,Acu-Link.com,2013-03-14 19:15:00,
2013-03-14 15:30:00,42.3,17.9,29.99,West,270,9.4,-999.0,37,-99.99,,,0.00,Acu-Link.com,2013-03-14 19:30:00,
2013-03-14 15:45:00,42.6,19.4,29.98,West,270,9.4,-999.0,39,-99.99,,,0.00,Acu-Link.com,2013-03-14 19:45:00,
2013-03-14 16:00:00,42.4,19.8,29.98,SW,225,6.3,-999.0,40,-99.99,,,0.00,Acu-Link.com,2013-03-14 20:00:00,
2013-03-14 16:15:00,40.6,18.8,29.97,West,270,8.3,-999.0,41,-99.99,,,0.00,Acu-Link.com,2013-03-14 20:15:00,
2013-03-14 16:30:00,41.0,20.2,29.97,West,270,6.3,-999.0,43,-99.99,,,0.00,Acu-Link.com,2013-03-14 20:30:00,
2013-03-14 16:46:00,41.0,21.8,29.97,WNW,292,8.3,-999.0,46,-99.99,,,0.00,Acu-Link.com,2013-03-14 20:46:00,
2013-03-14 17:01:00,41.0,22.8,29.97,West,270,5.3,-999.0,48,-99.99,,,0.00,Acu-Link.com,2013-03-14 21:01:00,
2013-03-14 17:16:00,41.2,24.0,29.97,SW,225,4.7,-999.0,50,-99.99,,,0.00,Acu-Link.com,2013-03-14 21:16:00,
2013-03-14 17:31:00,41.2,23.0,29.96,SSW,202,5.3,-999.0,48,-99.99,,,0.00,Acu-Link.com,2013-03-14 21:31:00,
2013-03-14 17:46:00,41.4,22.7,29.95,SW,225,4.2,-999.0,47,-99.99,,,0.00,Acu-Link.com,2013-03-14 21:46:00,
2013-03-14 18:01:00,41.2,22.5,29.95,WNW,292,5.8,-999.0,47,-99.99,,,0.00,Acu-Link.com,2013-03-14 22:01:00,
2013-03-14 18:16:00,40.6,23.0,29.94,WNW,292,4.2,-999.0,49,-99.99,,,0.00,Acu-Link.com,2013-03-14 22:16:00,
2013-03-14 18:32:00,39.9,23.3,29.94,West,270,3.7,-999.0,51,-99.99,,,0.00,Acu-Link.com,2013-03-14 22:32:00,
2013-03-14 18:47:00,39.9,24.2,29.94,WSW,247,1.7,-999.0,53,-99.99,,,0.00,Acu-Link.com,2013-03-14 22:47:00,
2013-03-14 19:02:00,39.0,24.7,29.94,West,270,5.3,-999.0,56,-99.99,,,0.00,Acu-Link.com,2013-03-14 23:02:00,
2013-03-14 19:17:00,38.7,24.8,29.95,SSW,202,5.8,-999.0,57,-99.99,,,0.00,Acu-Link.com,2013-03-14 23:17:00,
2013-03-14 19:33:00,38.8,25.3,29.94,West,270,6.3,-999.0,58,-99.99,,,0.00,Acu-Link.com,2013-03-14 23:33:00,
2013-03-14 19:48:00,38.1,25.5,29.93,SW,225,5.3,-999.0,60,-99.99,,,0.00,Acu-Link.com,2013-03-14 23:48:00,
2013-03-14 20:03:00,37.9,26.4,29.95,SW,225,3.7,-999.0,63,-99.99,,,0.00,Acu-Link.com,2013-03-15 00:03:00,
2013-03-14 20:19:00,37.8,27.1,29.96,NE,45,3.7,-999.0,65,-99.99,,,0.00,Acu-Link.com,2013-03-15 00:19:00,
2013-03-14 20:34:00,36.9,27.3,29.96,West,270,6.8,-999.0,68,-99.99,,,0.00,Acu-Link.com,2013-03-15 00:34:00,
2013-03-14 20:49:00,36.3,27.8,29.97,SW,225,11.9,-999.0,71,-99.99,,,0.00,Acu-Link.com,2013-03-15 00:49:00,
2013-03-14 21:04:00,35.1,28.0,29.97,WSW,247,11.9,-999.0,75,-99.99,,,0.00,Acu-Link.com,2013-03-15 01:04:00,
2013-03-14 21:20:00,34.5,28.4,29.96,WSW,247,9.9,-999.0,78,-99.99,,,0.00,Acu-Link.com,2013-03-15 01:20:00,
2013-03-14 21:35:00,34.3,28.5,29.95,SSW,202,7.3,-999.0,79,-99.99,,,0.00,Acu-Link.com,2013-03-15 01:35:00,
2013-03-14 21:50:00,33.8,28.6,29.94,SSW,202,5.8,-999.0,81,-99.99,,,0.00,Acu-Link.com,2013-03-15 01:50:00,
2013-03-14 22:05:00,33.6,29.0,29.92,SSW,202,6.8,-999.0,83,-99.99,,,0.00,Acu-Link.com,2013-03-15 02:05:00,
2013-03-14 22:20:00,33.4,28.8,29.93,SSW,202,4.7,-999.0,83,-99.99,,,0.00,Acu-Link.com,2013-03-15 02:20:00,
2013-03-14 22:35:00,33.4,29.1,29.94,SSW,202,7.3,-999.0,84,-99.99,,,0.00,Acu-Link.com,2013-03-15 02:35:00,
2013-03-14 22:50:00,33.4,29.4,29.92,South,180,8.3,-999.0,85,-99.99,,,0.00,Acu-Link.com,2013-03-15 02:50:00,
2013-03-14 23:05:00,33.1,29.4,29.92,SSW,202,6.8,-999.0,86,-99.99,,,0.00,Acu-Link.com,2013-03-15 03:05:00,
2013-03-14 23:20:00,33.1,29.4,29.93,SSW,202,8.3,-999.0,86,-99.99,,,0.00,Acu-Link.com,2013-03-15 03:20:00,
2013-03-14 23:36:00,32.9,29.5,29.91,SSW,202,8.3,-999.0,87,-99.99,,,0.00,Acu-Link.com,2013-03-15 03:36:00,
2013-03-14 23:51:00,32.5,29.3,29.90,SSW,202,7.8,-999.0,88,-99.99,,,0.00,Acu-Link.com,2013-03-15 03:51:00,